sensor_id;sensor_type;location;lat;lon;timestamp;P1;durP1;ratioP1;P2;durP2;ratioP2
83659;SDS011;73632;50.808;3.422;2024-02-16T00:00:00;9.95;;;3.55;;
83659;SDS011;73632;50.808;3.422;2024-02-16T00:02:26;5.25;;;3.10;;
83659;SDS011;73632;50.808;3.422;2024-02-16T00:04:51;5.43;;;3.05;;
83659;SDS011;73632;50.808;3.422;2024-02-16T00:07:17;6.50;;;3.22;;
83659;SDS011;73632;50.808;3.422;2024-02-16T00:09:42;5.78;;;3.08;;
83659;SDS011;73632;50.808;3.422;2024-02-16T00:12:08;10.05;;;3.55;;
83659;SDS011;73632;50.808;3.422;2024-02-16T00:14:33;6.50;;;3.03;;
83659;SDS011;73632;50.808;3.422;2024-02-16T00:16:58;8.38;;;3.03;;
83659;SDS011;73632;50.808;3.422;2024-02-16T00:19:24;17.63;;;5.10;;
83659;SDS011;73632;50.808;3.422;2024-02-16T00:21:50;8.13;;;3.30;;
83659;SDS011;73632;50.808;3.422;2024-02-16T00:24:16;5.68;;;3.25;;
83659;SDS011;73632;50.808;3.422;2024-02-16T00:26:41;8.32;;;3.38;;
83659;SDS011;73632;50.808;3.422;2024-02-16T00:29:08;5.00;;;3.25;;
83659;SDS011;73632;50.808;3.422;2024-02-16T00:31:33;5.35;;;2.88;;
83659;SDS011;73632;50.808;3.422;2024-02-16T00:33:59;10.07;;;2.95;;
83659;SDS011;73632;50.808;3.422;2024-02-16T00:36:25;9.35;;;3.38;;
83659;SDS011;73632;50.808;3.422;2024-02-16T00:38:51;5.18;;;3.15;;
83659;SDS011;73632;50.808;3.422;2024-02-16T00:41:18;7.07;;;3.58;;
83659;SDS011;73632;50.808;3.422;2024-02-16T00:43:44;7.38;;;3.40;;
83659;SDS011;73632;50.808;3.422;2024-02-16T00:46:10;6.57;;;3.03;;
83659;SDS011;73632;50.808;3.422;2024-02-16T00:48:36;8.13;;;3.13;;
83659;SDS011;73632;50.808;3.422;2024-02-16T00:51:01;6.05;;;3.05;;
83659;SDS011;73632;50.808;3.422;2024-02-16T00:53:26;5.50;;;2.95;;
83659;SDS011;73632;50.808;3.422;2024-02-16T00:55:52;6.00;;;3.05;;
83659;SDS011;73632;50.808;3.422;2024-02-16T00:58:17;5.32;;;3.10;;
83659;SDS011;73632;50.808;3.422;2024-02-16T01:00:44;10.65;;;4.00;;
83659;SDS011;73632;50.808;3.422;2024-02-16T01:03:10;7.40;;;2.80;;
83659;SDS011;73632;50.808;3.422;2024-02-16T01:05:37;8.50;;;3.35;;
83659;SDS011;73632;50.808;3.422;2024-02-16T01:08:03;9.23;;;3.50;;
83659;SDS011;73632;50.808;3.422;2024-02-16T01:10:28;7.75;;;3.28;;
83659;SDS011;73632;50.808;3.422;2024-02-16T01:12:54;7.65;;;3.60;;
83659;SDS011;73632;50.808;3.422;2024-02-16T01:15:21;8.77;;;3.38;;
83659;SDS011;73632;50.808;3.422;2024-02-16T01:17:46;9.65;;;3.35;;
83659;SDS011;73632;50.808;3.422;2024-02-16T01:20:11;5.22;;;3.05;;
83659;SDS011;73632;50.808;3.422;2024-02-16T01:22:37;10.73;;;3.55;;
83659;SDS011;73632;50.808;3.422;2024-02-16T01:25:03;8.68;;;3.30;;
83659;SDS011;73632;50.808;3.422;2024-02-16T01:27:29;7.95;;;2.92;;
83659;SDS011;73632;50.808;3.422;2024-02-16T01:29:54;6.88;;;3.55;;
83659;SDS011;73632;50.808;3.422;2024-02-16T01:32:20;5.50;;;3.15;;
83659;SDS011;73632;50.808;3.422;2024-02-16T01:34:45;7.53;;;3.58;;
83659;SDS011;73632;50.808;3.422;2024-02-16T01:37:13;9.07;;;3.38;;
83659;SDS011;73632;50.808;3.422;2024-02-16T01:39:39;7.82;;;3.40;;
83659;SDS011;73632;50.808;3.422;2024-02-16T01:42:04;6.53;;;3.30;;
83659;SDS011;73632;50.808;3.422;2024-02-16T01:44:30;8.60;;;3.63;;
83659;SDS011;73632;50.808;3.422;2024-02-16T01:46:55;5.63;;;3.20;;
83659;SDS011;73632;50.808;3.422;2024-02-16T01:49:20;5.22;;;2.95;;
83659;SDS011;73632;50.808;3.422;2024-02-16T01:51:46;7.60;;;3.38;;
83659;SDS011;73632;50.808;3.422;2024-02-16T01:54:12;6.78;;;3.00;;
83659;SDS011;73632;50.808;3.422;2024-02-16T01:56:37;8.73;;;3.17;;
83659;SDS011;73632;50.808;3.422;2024-02-16T01:59:03;6.38;;;3.10;;
83659;SDS011;73632;50.808;3.422;2024-02-16T02:01:29;8.27;;;3.00;;
83659;SDS011;73632;50.808;3.422;2024-02-16T02:03:55;6.97;;;3.40;;
83659;SDS011;73632;50.808;3.422;2024-02-16T02:06:21;6.10;;;3.20;;
83659;SDS011;73632;50.808;3.422;2024-02-16T02:08:46;8.32;;;3.13;;
83659;SDS011;73632;50.808;3.422;2024-02-16T02:11:12;5.80;;;3.08;;
83659;SDS011;73632;50.808;3.422;2024-02-16T02:13:37;5.25;;;2.80;;
83659;SDS011;73632;50.808;3.422;2024-02-16T02:16:03;7.13;;;2.80;;
83659;SDS011;73632;50.808;3.422;2024-02-16T02:18:31;4.90;;;2.95;;
83659;SDS011;73632;50.808;3.422;2024-02-16T02:20:56;6.60;;;3.40;;
83659;SDS011;73632;50.808;3.422;2024-02-16T02:23:21;8.80;;;3.03;;
83659;SDS011;73632;50.808;3.422;2024-02-16T02:25:47;8.40;;;3.35;;
83659;SDS011;73632;50.808;3.422;2024-02-16T02:28:14;7.80;;;3.50;;
83659;SDS011;73632;50.808;3.422;2024-02-16T02:30:40;6.93;;;2.80;;
83659;SDS011;73632;50.808;3.422;2024-02-16T02:33:06;12.32;;;3.65;;
83659;SDS011;73632;50.808;3.422;2024-02-16T02:35:32;7.53;;;3.28;;
83659;SDS011;73632;50.808;3.422;2024-02-16T02:37:57;8.05;;;3.20;;
83659;SDS011;73632;50.808;3.422;2024-02-16T02:40:22;5.93;;;3.38;;
83659;SDS011;73632;50.808;3.422;2024-02-16T02:42:48;6.72;;;4.03;;
83659;SDS011;73632;50.808;3.422;2024-02-16T02:45:13;5.90;;;2.97;;
83659;SDS011;73632;50.808;3.422;2024-02-16T02:47:39;6.53;;;3.25;;
83659;SDS011;73632;50.808;3.422;2024-02-16T02:50:04;10.52;;;3.45;;
83659;SDS011;73632;50.808;3.422;2024-02-16T02:52:30;7.53;;;3.15;;
83659;SDS011;73632;50.808;3.422;2024-02-16T02:54:56;9.57;;;3.45;;
83659;SDS011;73632;50.808;3.422;2024-02-16T02:57:21;6.32;;;3.20;;
83659;SDS011;73632;50.808;3.422;2024-02-16T02:59:46;6.63;;;3.17;;
83659;SDS011;73632;50.808;3.422;2024-02-16T03:02:12;8.20;;;3.63;;
83659;SDS011;73632;50.808;3.422;2024-02-16T03:04:37;6.07;;;3.00;;
83659;SDS011;73632;50.808;3.422;2024-02-16T03:07:02;7.20;;;2.90;;
83659;SDS011;73632;50.808;3.422;2024-02-16T03:09:28;8.55;;;3.58;;
83659;SDS011;73632;50.808;3.422;2024-02-16T03:11:53;6.38;;;3.08;;
83659;SDS011;73632;50.808;3.422;2024-02-16T03:14:19;6.25;;;2.88;;
83659;SDS011;73632;50.808;3.422;2024-02-16T03:16:44;7.75;;;3.47;;
83659;SDS011;73632;50.808;3.422;2024-02-16T03:19:10;5.82;;;3.15;;
83659;SDS011;73632;50.808;3.422;2024-02-16T03:21:35;6.82;;;3.15;;
83659;SDS011;73632;50.808;3.422;2024-02-16T03:24:03;4.07;;;2.70;;
83659;SDS011;73632;50.808;3.422;2024-02-16T03:26:29;5.95;;;3.25;;
83659;SDS011;73632;50.808;3.422;2024-02-16T03:28:54;8.82;;;3.22;;
83659;SDS011;73632;50.808;3.422;2024-02-16T03:31:21;6.80;;;2.80;;
83659;SDS011;73632;50.808;3.422;2024-02-16T03:33:48;5.85;;;3.10;;
83659;SDS011;73632;50.808;3.422;2024-02-16T03:36:15;11.40;;;4.57;;
83659;SDS011;73632;50.808;3.422;2024-02-16T03:38:44;7.82;;;3.20;;
83659;SDS011;73632;50.808;3.422;2024-02-16T03:41:14;6.68;;;3.38;;
83659;SDS011;73632;50.808;3.422;2024-02-16T03:43:42;9.88;;;3.75;;
83659;SDS011;73632;50.808;3.422;2024-02-16T03:46:08;10.48;;;3.60;;
83659;SDS011;73632;50.808;3.422;2024-02-16T03:48:33;4.63;;;2.95;;
83659;SDS011;73632;50.808;3.422;2024-02-16T03:50:59;6.60;;;3.10;;
83659;SDS011;73632;50.808;3.422;2024-02-16T03:53:25;9.65;;;3.33;;
83659;SDS011;73632;50.808;3.422;2024-02-16T03:55:51;9.32;;;3.58;;
83659;SDS011;73632;50.808;3.422;2024-02-16T03:58:16;9.45;;;3.25;;
83659;SDS011;73632;50.808;3.422;2024-02-16T04:00:42;8.40;;;3.08;;
83659;SDS011;73632;50.808;3.422;2024-02-16T04:03:07;6.40;;;2.95;;
83659;SDS011;73632;50.808;3.422;2024-02-16T04:05:34;7.55;;;3.17;;
83659;SDS011;73632;50.808;3.422;2024-02-16T04:08:00;7.53;;;3.20;;
83659;SDS011;73632;50.808;3.422;2024-02-16T04:10:27;6.57;;;3.20;;
83659;SDS011;73632;50.808;3.422;2024-02-16T04:12:55;7.10;;;3.35;;
83659;SDS011;73632;50.808;3.422;2024-02-16T04:15:21;7.13;;;4.25;;
83659;SDS011;73632;50.808;3.422;2024-02-16T04:17:47;6.97;;;3.30;;
83659;SDS011;73632;50.808;3.422;2024-02-16T04:20:14;9.45;;;3.42;;
83659;SDS011;73632;50.808;3.422;2024-02-16T04:22:40;15.07;;;3.55;;
83659;SDS011;73632;50.808;3.422;2024-02-16T04:25:05;7.32;;;3.00;;
83659;SDS011;73632;50.808;3.422;2024-02-16T04:27:30;7.10;;;3.47;;
83659;SDS011;73632;50.808;3.422;2024-02-16T04:29:56;9.70;;;3.30;;
83659;SDS011;73632;50.808;3.422;2024-02-16T04:32:22;7.72;;;3.67;;
83659;SDS011;73632;50.808;3.422;2024-02-16T04:34:50;6.22;;;2.95;;
83659;SDS011;73632;50.808;3.422;2024-02-16T04:37:17;12.32;;;3.80;;
83659;SDS011;73632;50.808;3.422;2024-02-16T04:39:46;9.13;;;2.97;;
83659;SDS011;73632;50.808;3.422;2024-02-16T04:42:11;6.47;;;3.17;;
83659;SDS011;73632;50.808;3.422;2024-02-16T04:44:37;8.18;;;2.92;;
83659;SDS011;73632;50.808;3.422;2024-02-16T04:47:06;8.00;;;3.15;;
83659;SDS011;73632;50.808;3.422;2024-02-16T04:49:32;6.38;;;3.10;;
83659;SDS011;73632;50.808;3.422;2024-02-16T04:51:57;6.13;;;3.20;;
83659;SDS011;73632;50.808;3.422;2024-02-16T04:54:23;7.55;;;3.17;;
83659;SDS011;73632;50.808;3.422;2024-02-16T04:56:48;8.07;;;3.45;;
83659;SDS011;73632;50.808;3.422;2024-02-16T04:59:14;8.13;;;3.17;;
83659;SDS011;73632;50.808;3.422;2024-02-16T05:01:40;10.15;;;3.63;;
83659;SDS011;73632;50.808;3.422;2024-02-16T05:04:05;5.18;;;2.97;;
83659;SDS011;73632;50.808;3.422;2024-02-16T05:06:31;8.93;;;3.55;;
83659;SDS011;73632;50.808;3.422;2024-02-16T05:08:57;5.90;;;3.28;;
83659;SDS011;73632;50.808;3.422;2024-02-16T05:11:23;6.93;;;3.10;;
83659;SDS011;73632;50.808;3.422;2024-02-16T05:13:49;5.22;;;2.83;;
83659;SDS011;73632;50.808;3.422;2024-02-16T05:16:15;9.40;;;3.10;;
83659;SDS011;73632;50.808;3.422;2024-02-16T05:18:41;6.95;;;3.15;;
83659;SDS011;73632;50.808;3.422;2024-02-16T05:21:06;6.90;;;3.17;;
83659;SDS011;73632;50.808;3.422;2024-02-16T05:23:32;5.57;;;3.17;;
83659;SDS011;73632;50.808;3.422;2024-02-16T05:25:57;5.57;;;3.08;;
83659;SDS011;73632;50.808;3.422;2024-02-16T05:28:23;6.78;;;3.15;;
83659;SDS011;73632;50.808;3.422;2024-02-16T05:30:48;7.82;;;3.25;;
83659;SDS011;73632;50.808;3.422;2024-02-16T05:33:14;8.35;;;3.25;;
83659;SDS011;73632;50.808;3.422;2024-02-16T05:35:39;7.55;;;3.15;;
83659;SDS011;73632;50.808;3.422;2024-02-16T05:38:05;11.48;;;3.45;;
83659;SDS011;73632;50.808;3.422;2024-02-16T05:40:32;6.82;;;3.00;;
83659;SDS011;73632;50.808;3.422;2024-02-16T05:43:09;6.18;;;3.55;;
83659;SDS011;73632;50.808;3.422;2024-02-16T05:45:34;6.65;;;3.22;;
83659;SDS011;73632;50.808;3.422;2024-02-16T05:48:00;7.82;;;2.90;;
83659;SDS011;73632;50.808;3.422;2024-02-16T05:50:26;6.57;;;2.65;;
83659;SDS011;73632;50.808;3.422;2024-02-16T05:52:51;13.10;;;3.30;;
83659;SDS011;73632;50.808;3.422;2024-02-16T05:55:17;6.70;;;2.92;;
83659;SDS011;73632;50.808;3.422;2024-02-16T05:57:46;8.82;;;3.55;;
83659;SDS011;73632;50.808;3.422;2024-02-16T06:00:11;8.77;;;4.93;;
83659;SDS011;73632;50.808;3.422;2024-02-16T06:02:38;10.18;;;4.15;;
83659;SDS011;73632;50.808;3.422;2024-02-16T06:05:04;8.70;;;3.75;;
83659;SDS011;73632;50.808;3.422;2024-02-16T06:07:29;10.10;;;4.25;;
83659;SDS011;73632;50.808;3.422;2024-02-16T06:09:55;9.55;;;5.50;;
83659;SDS011;73632;50.808;3.422;2024-02-16T06:12:21;10.65;;;5.32;;
83659;SDS011;73632;50.808;3.422;2024-02-16T06:14:47;8.30;;;4.22;;
83659;SDS011;73632;50.808;3.422;2024-02-16T06:17:16;9.13;;;3.80;;
83659;SDS011;73632;50.808;3.422;2024-02-16T06:19:42;5.90;;;3.50;;
83659;SDS011;73632;50.808;3.422;2024-02-16T06:22:08;6.60;;;3.33;;
83659;SDS011;73632;50.808;3.422;2024-02-16T06:24:34;7.13;;;3.45;;
83659;SDS011;73632;50.808;3.422;2024-02-16T06:26:59;9.07;;;4.90;;
83659;SDS011;73632;50.808;3.422;2024-02-16T06:29:25;12.30;;;5.57;;
83659;SDS011;73632;50.808;3.422;2024-02-16T06:31:50;10.68;;;5.82;;
83659;SDS011;73632;50.808;3.422;2024-02-16T06:34:17;8.90;;;4.53;;
83659;SDS011;73632;50.808;3.422;2024-02-16T06:36:43;6.72;;;3.85;;
83659;SDS011;73632;50.808;3.422;2024-02-16T06:39:08;19.20;;;4.70;;
83659;SDS011;73632;50.808;3.422;2024-02-16T06:41:46;7.78;;;4.28;;
83659;SDS011;73632;50.808;3.422;2024-02-16T06:44:12;15.15;;;3.45;;
83659;SDS011;73632;50.808;3.422;2024-02-16T06:46:39;13.40;;;4.60;;
83659;SDS011;73632;50.808;3.422;2024-02-16T06:49:05;8.32;;;3.88;;
83659;SDS011;73632;50.808;3.422;2024-02-16T06:51:30;10.73;;;4.65;;
83659;SDS011;73632;50.808;3.422;2024-02-16T06:53:56;17.60;;;4.97;;
83659;SDS011;73632;50.808;3.422;2024-02-16T06:56:21;9.27;;;4.18;;
83659;SDS011;73632;50.808;3.422;2024-02-16T06:58:47;14.68;;;4.90;;
83659;SDS011;73632;50.808;3.422;2024-02-16T07:01:13;9.63;;;3.75;;
83659;SDS011;73632;50.808;3.422;2024-02-16T07:03:39;19.50;;;4.57;;
83659;SDS011;73632;50.808;3.422;2024-02-16T07:06:05;14.38;;;4.90;;
83659;SDS011;73632;50.808;3.422;2024-02-16T07:08:34;17.35;;;4.75;;
83659;SDS011;73632;50.808;3.422;2024-02-16T07:11:03;18.15;;;4.88;;
83659;SDS011;73632;50.808;3.422;2024-02-16T07:13:29;17.65;;;5.57;;
83659;SDS011;73632;50.808;3.422;2024-02-16T07:15:55;13.60;;;5.10;;
83659;SDS011;73632;50.808;3.422;2024-02-16T07:18:21;14.15;;;4.88;;
83659;SDS011;73632;50.808;3.422;2024-02-16T07:20:46;14.27;;;4.30;;
83659;SDS011;73632;50.808;3.422;2024-02-16T07:23:12;12.15;;;3.90;;
83659;SDS011;73632;50.808;3.422;2024-02-16T07:25:40;11.10;;;4.55;;
83659;SDS011;73632;50.808;3.422;2024-02-16T07:28:06;10.82;;;4.18;;
83659;SDS011;73632;50.808;3.422;2024-02-16T07:30:33;16.80;;;4.10;;
83659;SDS011;73632;50.808;3.422;2024-02-16T07:32:58;7.82;;;3.75;;
83659;SDS011;73632;50.808;3.422;2024-02-16T07:35:24;9.45;;;3.67;;
83659;SDS011;73632;50.808;3.422;2024-02-16T07:37:50;13.23;;;4.00;;
83659;SDS011;73632;50.808;3.422;2024-02-16T07:40:19;17.30;;;4.30;;
83659;SDS011;73632;50.808;3.422;2024-02-16T07:42:45;7.57;;;3.75;;
83659;SDS011;73632;50.808;3.422;2024-02-16T07:45:11;9.52;;;3.70;;
83659;SDS011;73632;50.808;3.422;2024-02-16T07:47:37;8.95;;;3.58;;
83659;SDS011;73632;50.808;3.422;2024-02-16T07:50:06;12.13;;;4.20;;
83659;SDS011;73632;50.808;3.422;2024-02-16T07:52:31;11.20;;;3.88;;
83659;SDS011;73632;50.808;3.422;2024-02-16T07:54:57;10.10;;;4.22;;
83659;SDS011;73632;50.808;3.422;2024-02-16T07:57:23;12.10;;;4.32;;
83659;SDS011;73632;50.808;3.422;2024-02-16T07:59:48;16.45;;;4.95;;
83659;SDS011;73632;50.808;3.422;2024-02-16T08:02:14;15.55;;;4.35;;
83659;SDS011;73632;50.808;3.422;2024-02-16T08:04:49;16.15;;;5.03;;
83659;SDS011;73632;50.808;3.422;2024-02-16T08:07:16;22.05;;;6.03;;
83659;SDS011;73632;50.808;3.422;2024-02-16T08:09:45;17.88;;;5.28;;
83659;SDS011;73632;50.808;3.422;2024-02-16T08:12:11;12.10;;;4.63;;
83659;SDS011;73632;50.808;3.422;2024-02-16T08:14:38;16.70;;;4.72;;
83659;SDS011;73632;50.808;3.422;2024-02-16T08:17:04;9.77;;;4.28;;
83659;SDS011;73632;50.808;3.422;2024-02-16T08:19:35;11.90;;;4.10;;
83659;SDS011;73632;50.808;3.422;2024-02-16T08:22:05;13.43;;;3.97;;
83659;SDS011;73632;50.808;3.422;2024-02-16T08:24:34;16.98;;;4.43;;
83659;SDS011;73632;50.808;3.422;2024-02-16T08:27:00;9.32;;;4.22;;
83659;SDS011;73632;50.808;3.422;2024-02-16T08:29:26;13.13;;;4.30;;
83659;SDS011;73632;50.808;3.422;2024-02-16T08:31:52;10.90;;;4.38;;
83659;SDS011;73632;50.808;3.422;2024-02-16T08:34:17;11.60;;;5.28;;
83659;SDS011;73632;50.808;3.422;2024-02-16T08:36:43;15.40;;;4.00;;
83659;SDS011;73632;50.808;3.422;2024-02-16T08:39:09;13.98;;;4.20;;
83659;SDS011;73632;50.808;3.422;2024-02-16T08:41:36;7.60;;;3.65;;
83659;SDS011;73632;50.808;3.422;2024-02-16T08:44:02;14.55;;;3.92;;
83659;SDS011;73632;50.808;3.422;2024-02-16T08:46:28;12.00;;;3.95;;
83659;SDS011;73632;50.808;3.422;2024-02-16T08:48:54;13.88;;;3.83;;
83659;SDS011;73632;50.808;3.422;2024-02-16T08:51:20;7.35;;;3.90;;
83659;SDS011;73632;50.808;3.422;2024-02-16T08:53:45;11.80;;;4.22;;
83659;SDS011;73632;50.808;3.422;2024-02-16T08:56:11;18.65;;;4.05;;
83659;SDS011;73632;50.808;3.422;2024-02-16T08:58:37;15.32;;;4.57;;
83659;SDS011;73632;50.808;3.422;2024-02-16T09:01:02;8.95;;;4.30;;
83659;SDS011;73632;50.808;3.422;2024-02-16T09:03:28;16.33;;;4.57;;
83659;SDS011;73632;50.808;3.422;2024-02-16T09:05:54;15.60;;;4.70;;
83659;SDS011;73632;50.808;3.422;2024-02-16T09:08:19;14.63;;;4.63;;
83659;SDS011;73632;50.808;3.422;2024-02-16T09:10:44;11.00;;;4.85;;
83659;SDS011;73632;50.808;3.422;2024-02-16T09:13:10;12.02;;;4.78;;
83659;SDS011;73632;50.808;3.422;2024-02-16T09:15:35;12.88;;;4.38;;
83659;SDS011;73632;50.808;3.422;2024-02-16T09:18:01;17.58;;;4.75;;
83659;SDS011;73632;50.808;3.422;2024-02-16T09:20:28;16.33;;;5.18;;
83659;SDS011;73632;50.808;3.422;2024-02-16T09:22:53;25.05;;;5.72;;
83659;SDS011;73632;50.808;3.422;2024-02-16T09:25:19;15.40;;;5.40;;
83659;SDS011;73632;50.808;3.422;2024-02-16T09:27:44;18.55;;;6.28;;
83659;SDS011;73632;50.808;3.422;2024-02-16T09:30:11;12.18;;;5.75;;
83659;SDS011;73632;50.808;3.422;2024-02-16T09:32:40;16.70;;;5.85;;
83659;SDS011;73632;50.808;3.422;2024-02-16T09:35:07;13.95;;;5.68;;
83659;SDS011;73632;50.808;3.422;2024-02-16T09:37:32;19.50;;;6.43;;
83659;SDS011;73632;50.808;3.422;2024-02-16T09:39:58;18.02;;;6.30;;
83659;SDS011;73632;50.808;3.422;2024-02-16T09:42:23;18.38;;;7.40;;
83659;SDS011;73632;50.808;3.422;2024-02-16T09:44:51;19.90;;;6.90;;
83659;SDS011;73632;50.808;3.422;2024-02-16T09:47:17;23.05;;;7.32;;
83659;SDS011;73632;50.808;3.422;2024-02-16T09:49:45;17.98;;;8.43;;
83659;SDS011;73632;50.808;3.422;2024-02-16T09:52:12;16.98;;;7.65;;
83659;SDS011;73632;50.808;3.422;2024-02-16T09:54:38;15.85;;;8.02;;
83659;SDS011;73632;50.808;3.422;2024-02-16T09:57:04;22.92;;;9.20;;
83659;SDS011;73632;50.808;3.422;2024-02-16T09:59:30;21.00;;;9.63;;
83659;SDS011;73632;50.808;3.422;2024-02-16T10:02:03;30.52;;;9.88;;
83659;SDS011;73632;50.808;3.422;2024-02-16T10:04:33;26.95;;;10.05;;
83659;SDS011;73632;50.808;3.422;2024-02-16T10:06:58;42.70;;;12.60;;
83659;SDS011;73632;50.808;3.422;2024-02-16T10:09:24;42.88;;;12.18;;
83659;SDS011;73632;50.808;3.422;2024-02-16T10:11:57;42.58;;;12.90;;
83659;SDS011;73632;50.808;3.422;2024-02-16T10:14:22;31.92;;;10.63;;
83659;SDS011;73632;50.808;3.422;2024-02-16T10:16:59;20.77;;;9.70;;
83659;SDS011;73632;50.808;3.422;2024-02-16T10:19:34;20.33;;;9.63;;
83659;SDS011;73632;50.808;3.422;2024-02-16T10:22:09;18.87;;;9.00;;
83659;SDS011;73632;50.808;3.422;2024-02-16T10:24:35;18.77;;;9.80;;
83659;SDS011;73632;50.808;3.422;2024-02-16T10:27:03;23.35;;;10.57;;
83659;SDS011;73632;50.808;3.422;2024-02-16T10:29:29;19.83;;;9.60;;
83659;SDS011;73632;50.808;3.422;2024-02-16T10:31:56;20.75;;;9.43;;
83659;SDS011;73632;50.808;3.422;2024-02-16T10:34:21;15.52;;;9.55;;
83659;SDS011;73632;50.808;3.422;2024-02-16T10:36:49;15.45;;;9.20;;
83659;SDS011;73632;50.808;3.422;2024-02-16T10:39:16;21.98;;;10.07;;
83659;SDS011;73632;50.808;3.422;2024-02-16T10:41:43;16.25;;;9.43;;
83659;SDS011;73632;50.808;3.422;2024-02-16T10:44:09;16.58;;;9.90;;
83659;SDS011;73632;50.808;3.422;2024-02-16T10:46:35;14.48;;;9.15;;
83659;SDS011;73632;50.808;3.422;2024-02-16T10:49:01;15.30;;;9.63;;
83659;SDS011;73632;50.808;3.422;2024-02-16T10:51:34;13.85;;;9.98;;
83659;SDS011;73632;50.808;3.422;2024-02-16T10:59:09;16.02;;;10.98;;
83659;SDS011;73632;50.808;3.422;2024-02-16T11:01:42;19.13;;;11.55;;
83659;SDS011;73632;50.808;3.422;2024-02-16T11:04:08;19.23;;;12.18;;
83659;SDS011;73632;50.808;3.422;2024-02-16T11:06:51;23.95;;;14.07;;
83659;SDS011;73632;50.808;3.422;2024-02-16T11:09:25;24.15;;;15.10;;
83659;SDS011;73632;50.808;3.422;2024-02-16T11:12:12;26.70;;;16.55;;
83659;SDS011;73632;50.808;3.422;2024-02-16T11:14:42;23.63;;;16.15;;
83659;SDS011;73632;50.808;3.422;2024-02-16T11:17:15;29.67;;;17.00;;
83659;SDS011;73632;50.808;3.422;2024-02-16T11:19:45;23.63;;;15.68;;
83659;SDS011;73632;50.808;3.422;2024-02-16T11:22:14;22.85;;;14.23;;
83659;SDS011;73632;50.808;3.422;2024-02-16T11:24:42;20.92;;;13.48;;
83659;SDS011;73632;50.808;3.422;2024-02-16T11:27:10;15.23;;;11.18;;
83659;SDS011;73632;50.808;3.422;2024-02-16T11:29:36;14.90;;;10.25;;
83659;SDS011;73632;50.808;3.422;2024-02-16T11:32:02;15.52;;;10.63;;
83659;SDS011;73632;50.808;3.422;2024-02-16T11:34:28;14.98;;;9.52;;
83659;SDS011;73632;50.808;3.422;2024-02-16T11:36:58;16.70;;;9.27;;
83659;SDS011;73632;50.808;3.422;2024-02-16T11:39:24;12.77;;;8.10;;
83659;SDS011;73632;50.808;3.422;2024-02-16T11:42:01;10.85;;;8.50;;
83659;SDS011;73632;50.808;3.422;2024-02-16T11:44:36;13.95;;;8.15;;
83659;SDS011;73632;50.808;3.422;2024-02-16T11:47:05;9.88;;;7.53;;
83659;SDS011;73632;50.808;3.422;2024-02-16T11:49:34;9.27;;;6.95;;
83659;SDS011;73632;50.808;3.422;2024-02-16T11:51:59;11.13;;;6.35;;
83659;SDS011;73632;50.808;3.422;2024-02-16T11:54:25;8.80;;;6.55;;
83659;SDS011;73632;50.808;3.422;2024-02-16T11:56:51;10.10;;;5.57;;
83659;SDS011;73632;50.808;3.422;2024-02-16T11:59:20;6.70;;;5.10;;
83659;SDS011;73632;50.808;3.422;2024-02-16T12:04:22;7.18;;;5.28;;
83659;SDS011;73632;50.808;3.422;2024-02-16T12:06:58;7.18;;;5.63;;
83659;SDS011;73632;50.808;3.422;2024-02-16T12:09:25;9.65;;;7.30;;
83659;SDS011;73632;50.808;3.422;2024-02-16T12:11:54;12.82;;;6.88;;
83659;SDS011;73632;50.808;3.422;2024-02-16T12:14:23;10.05;;;6.43;;
83659;SDS011;73632;50.808;3.422;2024-02-16T12:16:49;7.75;;;5.88;;
83659;SDS011;73632;50.808;3.422;2024-02-16T12:19:15;9.18;;;6.57;;
83659;SDS011;73632;50.808;3.422;2024-02-16T12:21:43;6.72;;;5.20;;
83659;SDS011;73632;50.808;3.422;2024-02-16T12:24:08;4.97;;;3.85;;
83659;SDS011;73632;50.808;3.422;2024-02-16T12:26:34;7.65;;;3.60;;
83659;SDS011;73632;50.808;3.422;2024-02-16T12:28:59;4.93;;;3.08;;
83659;SDS011;73632;50.808;3.422;2024-02-16T12:31:24;6.70;;;3.08;;
83659;SDS011;73632;50.808;3.422;2024-02-16T12:33:51;4.90;;;3.13;;
83659;SDS011;73632;50.808;3.422;2024-02-16T12:36:17;5.55;;;3.72;;
83659;SDS011;73632;50.808;3.422;2024-02-16T12:38:42;6.03;;;4.00;;
83659;SDS011;73632;50.808;3.422;2024-02-16T12:41:07;8.18;;;4.40;;
83659;SDS011;73632;50.808;3.422;2024-02-16T12:43:33;9.35;;;5.75;;
83659;SDS011;73632;50.808;3.422;2024-02-16T12:45:59;10.63;;;6.35;;
83659;SDS011;73632;50.808;3.422;2024-02-16T12:48:27;8.13;;;6.05;;
83659;SDS011;73632;50.808;3.422;2024-02-16T12:50:53;6.63;;;4.95;;
83659;SDS011;73632;50.808;3.422;2024-02-16T12:53:19;5.75;;;4.45;;
83659;SDS011;73632;50.808;3.422;2024-02-16T12:55:45;5.32;;;3.58;;
83659;SDS011;73632;50.808;3.422;2024-02-16T12:58:11;6.80;;;4.50;;
83659;SDS011;73632;50.808;3.422;2024-02-16T13:00:37;5.40;;;3.67;;
83659;SDS011;73632;50.808;3.422;2024-02-16T13:03:03;8.70;;;3.80;;
83659;SDS011;73632;50.808;3.422;2024-02-16T13:05:29;5.95;;;4.15;;
83659;SDS011;73632;50.808;3.422;2024-02-16T13:07:56;7.75;;;4.72;;
83659;SDS011;73632;50.808;3.422;2024-02-16T13:10:22;6.55;;;4.78;;
83659;SDS011;73632;50.808;3.422;2024-02-16T13:12:47;7.05;;;4.78;;
83659;SDS011;73632;50.808;3.422;2024-02-16T13:15:13;7.47;;;3.83;;
83659;SDS011;73632;50.808;3.422;2024-02-16T13:17:38;4.80;;;3.25;;
83659;SDS011;73632;50.808;3.422;2024-02-16T13:20:04;4.90;;;3.15;;
83659;SDS011;73632;50.808;3.422;2024-02-16T13:22:34;4.20;;;3.05;;
83659;SDS011;73632;50.808;3.422;2024-02-16T13:25:03;7.90;;;3.55;;
83659;SDS011;73632;50.808;3.422;2024-02-16T13:27:29;9.90;;;3.58;;
83659;SDS011;73632;50.808;3.422;2024-02-16T13:29:55;6.10;;;4.32;;
83659;SDS011;73632;50.808;3.422;2024-02-16T13:32:20;5.05;;;3.90;;
83659;SDS011;73632;50.808;3.422;2024-02-16T13:34:45;10.77;;;4.15;;
83659;SDS011;73632;50.808;3.422;2024-02-16T13:37:11;8.10;;;4.07;;
83659;SDS011;73632;50.808;3.422;2024-02-16T13:39:36;7.90;;;4.15;;
83659;SDS011;73632;50.808;3.422;2024-02-16T13:42:02;5.57;;;4.07;;
83659;SDS011;73632;50.808;3.422;2024-02-16T13:44:27;8.65;;;4.30;;
83659;SDS011;73632;50.808;3.422;2024-02-16T13:46:53;6.35;;;4.55;;
83659;SDS011;73632;50.808;3.422;2024-02-16T13:49:18;6.53;;;3.75;;
83659;SDS011;73632;50.808;3.422;2024-02-16T13:51:43;7.43;;;4.40;;
83659;SDS011;73632;50.808;3.422;2024-02-16T13:54:10;7.78;;;3.20;;
83659;SDS011;73632;50.808;3.422;2024-02-16T13:56:35;8.40;;;3.60;;
83659;SDS011;73632;50.808;3.422;2024-02-16T13:59:02;5.63;;;3.22;;
83659;SDS011;73632;50.808;3.422;2024-02-16T14:01:28;5.00;;;3.17;;
83659;SDS011;73632;50.808;3.422;2024-02-16T14:03:54;5.03;;;3.00;;
83659;SDS011;73632;50.808;3.422;2024-02-16T14:06:20;4.45;;;2.90;;
83659;SDS011;73632;50.808;3.422;2024-02-16T14:08:46;7.68;;;3.72;;
83659;SDS011;73632;50.808;3.422;2024-02-16T14:11:13;7.88;;;3.20;;
83659;SDS011;73632;50.808;3.422;2024-02-16T14:13:38;5.40;;;3.55;;
83659;SDS011;73632;50.808;3.422;2024-02-16T14:16:04;8.45;;;4.28;;
83659;SDS011;73632;50.808;3.422;2024-02-16T14:18:30;9.52;;;4.35;;
83659;SDS011;73632;50.808;3.422;2024-02-16T14:20:55;8.10;;;4.18;;
83659;SDS011;73632;50.808;3.422;2024-02-16T14:23:21;6.80;;;4.78;;
83659;SDS011;73632;50.808;3.422;2024-02-16T14:25:46;7.85;;;4.65;;
83659;SDS011;73632;50.808;3.422;2024-02-16T14:28:12;7.90;;;3.92;;
83659;SDS011;73632;50.808;3.422;2024-02-16T14:30:37;9.45;;;3.22;;
83659;SDS011;73632;50.808;3.422;2024-02-16T14:33:04;6.28;;;2.90;;
83659;SDS011;73632;50.808;3.422;2024-02-16T14:35:30;8.27;;;2.80;;
83659;SDS011;73632;50.808;3.422;2024-02-16T14:37:57;4.25;;;2.75;;
83659;SDS011;73632;50.808;3.422;2024-02-16T14:40:23;8.43;;;2.53;;
83659;SDS011;73632;50.808;3.422;2024-02-16T14:42:49;9.63;;;2.33;;
83659;SDS011;73632;50.808;3.422;2024-02-16T14:45:14;5.97;;;2.28;;